Archival Weather

Tokyo Intl

Tokyo Intl, Japan (RJTT)

Report from: Friday, June 24, 2022 1:26 AM JST
Current time: Tuesday, August 16, 2022 4:43 PM JST

Current weather
Weather history
Weather forecast

Present weatherLight rain
Temperature23.0°C (73.4°F)
Dew point21.0°C (69.8°F)
Winds 7 kts (3.6 m/s, 8.1 mph) South (180°)
Visibility6.2 mi. (10 km)
Clouds Few clouds 600 ft. (183 m)
Ceiling: Broken clouds 900 ft. (274 m)
Broken clouds 1,500 ft. (457 m)
Altimeter29.83 in.Hg (1010 mB)
Relative humidity89 %
Density altitude1,376 ft. (419 m)
Remarks Special weather observation
Flight conditions Instrument Meteorological Conditions
Raw dataSPJP31 KWBC 231636 SPECI RJTT 231626Z 18007KT 9999 -RA FEW006 BKN009 BKN015 23/21 Q1010 RMK 1ST006 5ST009 6SC015 A2983
An error has occurred. This application may no longer respond until reloaded. Reload 🗙